createdAt,value
2018-08-30T00:01:28.985Z,14.10
2018-08-30T00:03:57.812Z,14.10
2018-08-30T00:06:26.323Z,14.00
2018-08-30T00:08:54.846Z,14.10
2018-08-30T00:11:23.358Z,14.10
2018-08-30T00:13:51.863Z,14.10
2018-08-30T00:16:20.738Z,14.10
2018-08-30T00:18:49.210Z,14.10
2018-08-30T00:21:17.667Z,14.00
2018-08-30T00:23:46.144Z,13.90
2018-08-30T00:26:14.680Z,13.90
2018-08-30T00:28:43.179Z,13.90
2018-08-30T00:31:11.650Z,13.90
2018-08-30T00:33:40.139Z,13.90
2018-08-30T00:36:08.635Z,13.90
2018-08-30T00:38:37.126Z,13.90
2018-08-30T00:41:05.630Z,13.90
2018-08-30T00:43:34.102Z,13.90
2018-08-30T00:46:02.578Z,13.90
2018-08-30T00:48:31.038Z,13.90
2018-08-30T00:50:59.498Z,13.90
2018-08-30T00:53:27.979Z,13.90
2018-08-30T00:55:56.495Z,14.00
2018-08-30T00:58:24.970Z,14.10
2018-08-30T01:00:54.512Z,14.00
2018-08-30T01:03:22.992Z,14.00
2018-08-30T01:05:51.478Z,14.00
2018-08-30T01:08:19.979Z,13.90
2018-08-30T01:10:48.456Z,13.90
2018-08-30T01:13:16.924Z,13.80
2018-08-30T01:15:45.391Z,13.80
2018-08-30T01:18:13.924Z,13.70
2018-08-30T01:20:42.403Z,13.70
2018-08-30T01:23:10.959Z,13.80
2018-08-30T01:25:39.535Z,13.90
2018-08-30T01:28:08.035Z,13.80
2018-08-30T01:30:36.518Z,13.80
2018-08-30T01:33:05.008Z,13.70
2018-08-30T01:35:33.547Z,13.70
2018-08-30T01:38:02.074Z,13.60
2018-08-30T01:40:30.652Z,13.60
2018-08-30T01:42:59.126Z,13.60
2018-08-30T01:45:27.611Z,13.50
2018-08-30T01:47:56.078Z,13.50
2018-08-30T01:50:24.542Z,13.50
2018-08-30T01:52:53.035Z,13.50
2018-08-30T01:55:21.558Z,13.50
2018-08-30T01:57:50.027Z,13.50
2018-08-30T02:00:18.503Z,13.70
2018-08-30T02:02:47.016Z,13.80
2018-08-30T02:05:15.490Z,13.80
2018-08-30T02:07:44.023Z,13.70
2018-08-30T02:10:12.495Z,13.70
2018-08-30T02:12:40.975Z,13.70
2018-08-30T02:15:09.526Z,13.60
2018-08-30T02:17:38.115Z,13.60
2018-08-30T02:20:07.227Z,13.50
2018-08-30T02:22:35.726Z,13.40
2018-08-30T02:25:04.279Z,13.40
2018-08-30T02:27:32.762Z,13.40
2018-08-30T02:30:01.254Z,13.30
2018-08-30T02:32:29.762Z,13.30
2018-08-30T02:34:58.242Z,13.40
2018-08-30T02:37:26.746Z,13.40
2018-08-30T02:39:55.218Z,13.50
2018-08-30T02:42:23.706Z,13.40
2018-08-30T02:44:52.166Z,13.40
2018-08-30T02:47:20.630Z,13.40
2018-08-30T02:49:49.100Z,13.40
2018-08-30T02:52:17.617Z,13.40
2018-08-30T02:54:46.122Z,13.40
2018-08-30T02:57:14.601Z,13.40
2018-08-30T02:59:43.083Z,13.40
2018-08-30T03:02:11.607Z,13.30
2018-08-30T03:04:40.140Z,13.30
2018-08-30T03:07:08.685Z,13.20
2018-08-30T03:09:37.167Z,13.20
2018-08-30T03:12:05.694Z,13.20
2018-08-30T03:14:34.198Z,13.10
2018-08-30T03:17:02.734Z,13.10
2018-08-30T03:19:31.492Z,13.20
2018-08-30T03:21:59.963Z,13.30
2018-08-30T03:24:28.434Z,13.40
2018-08-30T03:26:56.903Z,13.60
2018-08-30T03:29:25.397Z,13.50
2018-08-30T03:31:53.936Z,13.40
2018-08-30T03:34:22.418Z,13.40
2018-08-30T03:36:50.882Z,13.30
2018-08-30T03:39:19.442Z,13.30
2018-08-30T03:41:47.921Z,13.20
2018-08-30T03:44:16.407Z,13.20
2018-08-30T03:46:44.944Z,13.10
2018-08-30T03:49:13.395Z,13.10
2018-08-30T03:51:41.882Z,13.10
2018-08-30T03:54:19.535Z,13.10
2018-08-30T03:56:48.009Z,13.10
2018-08-30T03:59:16.479Z,13.20
2018-08-30T04:02:02.026Z,13.10
2018-08-30T04:04:30.528Z,13.10
2018-08-30T04:06:59.222Z,13.30
2018-08-30T04:09:27.938Z,13.20
2018-08-30T04:14:49.641Z,13.20
2018-08-30T04:23:04.687Z,13.10
2018-08-30T04:25:45.503Z,13.20
2018-08-30T04:28:13.966Z,13.20
2018-08-30T04:33:35.882Z,13.10
2018-08-30T04:36:04.367Z,13.10
2018-08-30T04:38:32.894Z,13.10
2018-08-30T04:41:01.587Z,13.10
2018-08-30T04:43:30.109Z,13.10
2018-08-30T04:48:51.753Z,13.20
2018-08-30T04:51:20.300Z,13.30
2018-08-30T04:53:48.790Z,13.30
2018-08-30T04:59:10.604Z,13.50
2018-08-30T05:31:04.171Z,14.70
2018-08-30T05:40:51.474Z,14.90
2018-08-30T05:43:21.039Z,15.00
2018-08-30T05:54:27.086Z,14.90
2018-08-30T05:59:48.214Z,14.80
2018-08-30T06:05:31.565Z,15.00
2018-08-30T06:08:03.245Z,15.20
2018-08-30T06:13:32.921Z,15.50
2018-08-30T06:16:31.335Z,15.80
2018-08-30T06:44:55.879Z,17.60
2018-08-30T06:50:16.968Z,17.80
2018-08-30T06:56:01.359Z,18.00
2018-08-30T07:01:22.870Z,18.20
2018-08-30T07:03:51.392Z,18.40
2018-08-30T07:06:19.885Z,18.50
2018-08-30T07:08:48.359Z,18.50
2018-08-30T07:11:25.894Z,18.50
2018-08-30T07:14:03.261Z,18.60
2018-08-30T07:16:54.080Z,18.70
2018-08-30T07:19:22.556Z,18.80
2018-08-30T07:24:43.938Z,18.90
2018-08-30T07:27:12.411Z,19.00
2018-08-30T07:29:47.867Z,19.10
2018-08-30T07:37:43.846Z,19.50
2018-08-30T07:40:42.804Z,19.60
2018-08-30T07:48:58.143Z,20.00
2018-08-30T07:51:26.698Z,20.20
2018-08-30T07:56:48.275Z,20.40
2018-08-30T07:59:16.763Z,20.60
2018-08-30T08:04:38.482Z,20.80
2018-08-30T08:10:00.243Z,21.00
2018-08-30T08:12:28.733Z,21.00
2018-08-30T08:14:57.230Z,21.20
2018-08-30T08:17:25.694Z,21.30
2018-08-30T08:19:54.258Z,21.30
2018-08-30T08:22:23.590Z,21.30
2018-08-30T08:24:52.119Z,21.30
2018-08-30T08:27:20.619Z,21.40
2018-08-30T08:29:49.127Z,21.40
2018-08-30T08:32:17.591Z,21.50
2018-08-30T08:34:46.058Z,21.60
2018-08-30T08:37:14.582Z,21.70
2018-08-30T08:39:43.080Z,21.90
2018-08-30T08:42:11.631Z,22.10
2018-08-30T08:44:40.134Z,22.30
2018-08-30T08:47:08.614Z,22.50
2018-08-30T08:49:37.798Z,22.50
2018-08-30T08:52:06.367Z,22.60
2018-08-30T08:54:34.865Z,23.00
2018-08-30T08:57:03.409Z,23.00
2018-08-30T08:59:31.940Z,23.30
2018-08-30T09:02:00.431Z,23.50
2018-08-30T09:04:29.220Z,23.70
2018-08-30T09:06:57.878Z,23.80
2018-08-30T09:09:26.364Z,24.00
2018-08-30T09:11:54.830Z,24.20
2018-08-30T09:14:23.326Z,24.20
2018-08-30T09:16:51.808Z,24.00
2018-08-30T09:19:20.359Z,24.10
2018-08-30T09:21:48.827Z,24.10
2018-08-30T09:24:17.302Z,24.20
2018-08-30T09:26:45.842Z,24.10
2018-08-30T09:29:14.298Z,24.20
2018-08-30T09:31:42.783Z,24.20
2018-08-30T09:34:11.262Z,24.30
2018-08-30T09:36:39.738Z,24.20
2018-08-30T09:39:09.031Z,24.20
2018-08-30T09:41:37.571Z,24.20
2018-08-30T09:44:06.162Z,24.40
2018-08-30T09:46:34.684Z,24.50
2018-08-30T09:49:03.498Z,24.70
2018-08-30T09:51:32.024Z,24.80
2018-08-30T09:54:00.573Z,24.70
2018-08-30T09:56:29.074Z,24.70
2018-08-30T09:58:57.592Z,24.80
2018-08-30T10:01:31.331Z,24.90
2018-08-30T10:03:59.796Z,24.80
2018-08-30T10:06:28.986Z,24.90
2018-08-30T10:08:57.890Z,25.10
2018-08-30T10:11:26.374Z,25.10
2018-08-30T10:13:54.843Z,25.20
2018-08-30T10:28:13.543Z,25.20
2018-08-30T10:33:38.327Z,25.40
2018-08-30T10:38:59.755Z,25.40
2018-08-30T10:44:20.994Z,25.60
2018-08-30T10:49:42.413Z,25.50
2018-08-30T10:52:10.759Z,25.50
2018-08-30T10:54:39.227Z,25.40
2018-08-30T10:57:07.699Z,25.40
2018-08-30T10:59:36.219Z,25.40
2018-08-30T11:02:04.798Z,25.60
2018-08-30T11:04:33.407Z,25.70
2018-08-30T11:07:01.988Z,25.70
2018-08-30T11:09:30.485Z,25.50
2018-08-30T11:11:58.957Z,25.40
2018-08-30T11:14:27.515Z,25.60
2018-08-30T11:16:56.006Z,25.80
2018-08-30T11:19:24.539Z,25.80
2018-08-30T11:21:52.990Z,25.70
2018-08-30T11:24:21.483Z,25.60
2018-08-30T11:26:49.944Z,25.90
2018-08-30T11:29:18.421Z,26.00
2018-08-30T11:31:46.894Z,26.00
2018-08-30T11:34:15.363Z,25.90
2018-08-30T11:36:43.856Z,26.00
2018-08-30T11:39:12.426Z,26.10
2018-08-30T11:41:40.972Z,26.10
2018-08-30T11:44:09.547Z,26.20
2018-08-30T11:46:38.026Z,26.20
2018-08-30T11:49:06.546Z,26.00
2018-08-30T11:51:35.018Z,26.00
2018-08-30T11:54:03.516Z,26.00
2018-08-30T11:56:32.002Z,25.90
2018-08-30T11:59:00.474Z,25.90
2018-08-30T12:01:28.934Z,26.20
2018-08-30T12:03:58.257Z,26.20
2018-08-30T12:06:27.046Z,26.30
2018-08-30T12:08:55.762Z,26.30
2018-08-30T12:11:24.564Z,26.50
2018-08-30T12:13:53.056Z,26.70
2018-08-30T12:16:21.690Z,26.70
2018-08-30T12:18:50.199Z,26.80
2018-08-30T12:21:18.803Z,26.80
2018-08-30T12:23:47.330Z,26.80
2018-08-30T12:26:15.810Z,26.80
2018-08-30T12:28:44.363Z,26.80
2018-08-30T12:31:12.926Z,26.80
2018-08-30T12:33:41.382Z,26.80
2018-08-30T12:36:09.997Z,27.10
2018-08-30T12:38:38.547Z,26.90
2018-08-30T12:41:07.046Z,27.10
2018-08-30T12:43:35.650Z,27.10
2018-08-30T12:46:04.105Z,27.30
2018-08-30T12:48:32.609Z,27.50
2018-08-30T12:51:01.253Z,26.70
2018-08-30T12:53:29.708Z,26.40
2018-08-30T12:55:58.504Z,26.30
2018-08-30T12:58:27.326Z,26.30
2018-08-30T13:00:56.202Z,26.10
2018-08-30T13:03:24.624Z,26.20
2018-08-30T13:05:53.174Z,26.20
2018-08-30T13:08:21.825Z,26.20
2018-08-30T13:10:50.314Z,26.30
2018-08-30T13:13:18.769Z,26.00
2018-08-30T13:15:47.107Z,26.00
2018-08-30T13:18:15.786Z,25.80
2018-08-30T13:20:44.687Z,25.60
2018-08-30T13:23:13.314Z,25.20
2018-08-30T13:25:41.786Z,25.30
2018-08-30T13:28:10.212Z,25.40
2018-08-30T13:30:38.756Z,25.70
2018-08-30T13:33:07.422Z,25.60
2018-08-30T13:35:35.765Z,25.60
2018-08-30T13:38:04.705Z,25.80
2018-08-30T13:40:33.155Z,25.90
2018-08-30T13:43:01.608Z,26.00
2018-08-30T13:45:29.924Z,25.90
2018-08-30T13:47:58.602Z,26.20
2018-08-30T13:50:26.941Z,26.30
2018-08-30T13:52:55.402Z,26.30
2018-08-30T13:55:24.056Z,26.10
2018-08-30T13:57:52.760Z,25.90
2018-08-30T14:00:21.350Z,26.00
2018-08-30T14:02:49.311Z,25.90
2018-08-30T14:05:18.064Z,25.60
2018-08-30T14:07:46.359Z,25.40
2018-08-30T14:10:15.002Z,25.20
2018-08-30T14:12:43.376Z,25.10
2018-08-30T14:15:12.017Z,24.90
2018-08-30T14:17:40.159Z,24.80
2018-08-30T14:20:08.586Z,24.60
2018-08-30T14:22:37.070Z,24.50
2018-08-30T14:25:05.955Z,24.40
2018-08-30T14:27:34.333Z,24.30
2018-08-30T14:30:03.138Z,24.30
2018-08-30T14:32:31.665Z,24.30
2018-08-30T14:35:00.134Z,24.30
2018-08-30T14:37:28.824Z,24.30
2018-08-30T14:39:57.216Z,24.20
2018-08-30T14:42:25.612Z,24.10
2018-08-30T14:44:54.177Z,24.10
2018-08-30T14:47:23.270Z,24.00
2018-08-30T14:49:51.855Z,24.00
2018-08-30T14:52:20.339Z,23.90
2018-08-30T14:54:48.803Z,23.90
2018-08-30T14:57:17.343Z,23.70
2018-08-30T14:59:45.820Z,23.70
2018-08-30T15:02:14.339Z,23.60
2018-08-30T15:04:42.808Z,23.50
2018-08-30T15:07:11.372Z,23.50
2018-08-30T15:09:39.786Z,23.40
2018-08-30T15:12:08.262Z,23.20
2018-08-30T15:14:36.780Z,23.20
2018-08-30T15:17:05.421Z,23.10
2018-08-30T15:19:33.778Z,23.00
2018-08-30T15:22:02.254Z,22.90
2018-08-30T15:24:30.812Z,22.80
2018-08-30T15:26:59.621Z,22.70
2018-08-30T15:29:27.831Z,22.60
2018-08-30T15:31:56.358Z,21.80
2018-08-30T15:34:24.836Z,21.30
2018-08-30T15:36:53.303Z,20.70
2018-08-30T15:39:21.790Z,20.40
2018-08-30T15:41:50.286Z,20.00
2018-08-30T15:44:18.816Z,19.60
2018-08-30T15:46:47.316Z,19.30
2018-08-30T15:49:15.782Z,18.70
2018-08-30T15:51:44.287Z,18.10
2018-08-30T15:54:12.758Z,17.30
2018-08-30T15:56:41.246Z,16.90
2018-08-30T15:59:09.718Z,16.70
2018-08-30T16:01:38.226Z,16.50
2018-08-30T16:04:06.723Z,16.40
2018-08-30T16:06:35.231Z,16.50
2018-08-30T16:09:04.471Z,16.60
2018-08-30T16:11:32.954Z,16.50
2018-08-30T16:14:01.425Z,16.30
2018-08-30T16:16:29.908Z,16.20
2018-08-30T16:18:58.401Z,16.30
2018-08-30T16:21:28.692Z,16.30
2018-08-30T16:23:57.207Z,16.30
2018-08-30T16:26:25.691Z,16.30
2018-08-30T16:28:54.168Z,16.30
2018-08-30T16:31:22.749Z,16.30
2018-08-30T16:33:51.163Z,16.30
2018-08-30T16:36:19.646Z,16.20
2018-08-30T16:38:48.121Z,16.10
2018-08-30T16:41:16.648Z,16.00
2018-08-30T16:43:45.094Z,16.00
2018-08-30T16:46:13.567Z,15.90
2018-08-30T16:48:42.129Z,15.90
2018-08-30T16:51:10.568Z,15.90
2018-08-30T16:53:39.130Z,15.80
2018-08-30T16:56:07.677Z,15.80
2018-08-30T16:58:36.099Z,15.80
2018-08-30T17:01:04.730Z,15.80
2018-08-30T17:03:33.227Z,15.80
2018-08-30T17:06:01.725Z,15.70
2018-08-30T17:08:30.244Z,15.70
2018-08-30T17:10:58.674Z,15.70
2018-08-30T17:13:27.201Z,15.70
2018-08-30T17:15:55.684Z,15.70
2018-08-30T17:18:24.151Z,15.70
2018-08-30T17:21:02.356Z,15.70
2018-08-30T17:23:30.893Z,15.60
2018-08-30T17:26:12.749Z,15.70
2018-08-30T17:28:41.266Z,15.70
2018-08-30T17:31:18.791Z,15.60
2018-08-30T17:33:47.178Z,15.60
2018-08-30T17:39:10.355Z,15.70
2018-08-30T17:41:38.923Z,15.70
2018-08-30T17:44:08.140Z,15.70
2018-08-30T17:46:37.007Z,15.70
2018-08-30T17:51:59.075Z,15.60
2018-08-30T17:54:27.941Z,15.50
2018-08-30T17:59:49.845Z,15.60
2018-08-30T18:02:45.235Z,15.50
2018-08-30T18:08:34.466Z,15.50
2018-08-30T18:11:06.397Z,15.50
2018-08-30T18:13:34.950Z,15.50
2018-08-30T18:18:56.607Z,15.60
2018-08-30T18:24:18.560Z,15.60
2018-08-30T18:26:47.972Z,15.60
2018-08-30T18:29:16.555Z,15.50
2018-08-30T18:34:38.000Z,15.60
2018-08-30T18:37:06.545Z,15.50
2018-08-30T18:39:35.207Z,15.50
2018-08-30T18:42:03.808Z,15.40
2018-08-30T18:44:33.383Z,15.30
2018-08-30T18:47:02.141Z,15.40
2018-08-30T18:49:30.848Z,15.40
2018-08-30T18:51:59.411Z,15.40
2018-08-30T18:54:27.941Z,15.40
2018-08-30T18:56:56.491Z,15.40
2018-08-30T18:59:25.088Z,15.50
2018-08-30T19:01:54.264Z,15.50
2018-08-30T19:04:22.803Z,15.40
2018-08-30T19:06:51.349Z,15.40
2018-08-30T19:09:19.901Z,15.40
2018-08-30T19:11:48.572Z,15.40
2018-08-30T19:14:17.132Z,15.40
2018-08-30T19:16:51.051Z,15.40
2018-08-30T19:19:21.478Z,15.30
2018-08-30T19:21:50.246Z,15.30
2018-08-30T19:24:24.163Z,15.20
2018-08-30T19:26:52.843Z,15.20
2018-08-30T19:29:21.577Z,15.20
2018-08-30T19:31:50.081Z,15.20
2018-08-30T19:34:18.641Z,15.10
2018-08-30T19:36:47.229Z,15.10
2018-08-30T19:39:15.843Z,15.10
2018-08-30T19:41:44.339Z,15.10
2018-08-30T19:44:12.903Z,15.10
2018-08-30T19:46:41.994Z,15.10
2018-08-30T19:49:10.833Z,15.00
2018-08-30T19:51:39.666Z,15.00
2018-08-30T19:54:08.218Z,15.00
2018-08-30T19:56:36.686Z,14.90
2018-08-30T19:59:05.190Z,14.90
2018-08-30T20:01:34.018Z,14.90
2018-08-30T20:04:02.865Z,14.90
2018-08-30T20:06:31.355Z,15.00
2018-08-30T20:08:59.824Z,14.90
2018-08-30T20:11:28.392Z,14.90
2018-08-30T20:13:56.907Z,15.00
2018-08-30T20:16:25.374Z,15.00
2018-08-30T20:18:53.852Z,14.90
2018-08-30T20:21:22.351Z,15.00
2018-08-30T20:23:50.812Z,15.00
2018-08-30T20:26:19.278Z,14.90
2018-08-30T20:28:47.763Z,14.90
2018-08-30T20:31:16.209Z,14.80
2018-08-30T20:33:44.702Z,14.80
2018-08-30T20:36:13.246Z,14.90
2018-08-30T20:38:41.718Z,14.90
2018-08-30T20:41:10.305Z,14.90
2018-08-30T20:43:38.788Z,14.80
2018-08-30T20:46:07.259Z,14.80
2018-08-30T20:48:35.726Z,14.80
2018-08-30T20:51:04.255Z,14.80
2018-08-30T20:53:32.773Z,14.80
2018-08-30T20:56:01.223Z,14.80
2018-08-30T20:58:29.717Z,14.80
2018-08-30T21:00:58.196Z,14.80
2018-08-30T21:03:26.667Z,14.80
2018-08-30T21:05:55.201Z,14.80
2018-08-30T21:08:23.667Z,14.80
2018-08-30T21:10:52.146Z,14.90
2018-08-30T21:13:20.609Z,14.80
2018-08-30T21:15:49.066Z,14.80
2018-08-30T21:18:17.527Z,14.80
2018-08-30T21:20:46.000Z,14.80
2018-08-30T21:23:14.468Z,14.80
2018-08-30T21:25:42.923Z,14.70
2018-08-30T21:28:11.386Z,14.70
2018-08-30T21:30:39.861Z,14.70
2018-08-30T21:33:08.591Z,14.70
2018-08-30T21:35:37.156Z,14.70
2018-08-30T21:38:05.683Z,14.70
2018-08-30T21:40:34.257Z,14.70
2018-08-30T21:43:02.750Z,14.70
2018-08-30T21:45:31.199Z,14.70
2018-08-30T21:47:59.677Z,14.80
2018-08-30T21:50:28.139Z,14.60
2018-08-30T21:52:56.609Z,14.70
2018-08-30T21:55:25.328Z,14.60
2018-08-30T21:57:53.801Z,14.60
2018-08-30T22:00:22.299Z,14.70
2018-08-30T22:02:50.783Z,14.70
2018-08-30T22:05:19.267Z,14.70
2018-08-30T22:07:47.721Z,14.70
2018-08-30T22:10:16.195Z,14.70
2018-08-30T22:12:44.698Z,14.70
2018-08-30T22:15:13.182Z,14.70
2018-08-30T22:17:41.645Z,14.70
2018-08-30T22:20:10.127Z,14.70
2018-08-30T22:22:38.582Z,14.70
2018-08-30T22:25:07.075Z,14.70
2018-08-30T22:27:35.587Z,14.70
2018-08-30T22:30:05.067Z,14.70
2018-08-30T22:32:33.560Z,14.60
2018-08-30T22:35:02.018Z,14.60
2018-08-30T22:37:30.575Z,14.60
2018-08-30T22:39:59.097Z,14.60
2018-08-30T22:42:27.526Z,14.50
2018-08-30T22:44:55.988Z,14.50
2018-08-30T22:47:24.482Z,14.50
2018-08-30T22:49:52.933Z,14.50
2018-08-30T22:52:21.400Z,14.50
2018-08-30T22:54:49.978Z,14.40
2018-08-30T22:57:18.440Z,14.40
2018-08-30T22:59:46.895Z,14.50
2018-08-30T23:02:15.347Z,14.40
2018-08-30T23:04:43.819Z,14.40
2018-08-30T23:07:12.326Z,14.30
2018-08-30T23:09:40.766Z,14.30
2018-08-30T23:12:09.267Z,14.10
2018-08-30T23:14:37.736Z,14.20
2018-08-30T23:17:06.251Z,14.00
2018-08-30T23:19:34.769Z,13.90
2018-08-30T23:22:03.295Z,13.90
2018-08-30T23:24:31.767Z,13.90
2018-08-30T23:27:00.231Z,13.90
2018-08-30T23:29:28.729Z,13.80
2018-08-30T23:31:57.162Z,13.80
2018-08-30T23:34:25.674Z,13.80
2018-08-30T23:36:54.135Z,13.70
2018-08-30T23:39:22.610Z,13.70
2018-08-30T23:41:51.079Z,13.60
2018-08-30T23:44:19.550Z,13.50
2018-08-30T23:46:48.019Z,13.60
2018-08-30T23:49:16.474Z,13.50
2018-08-30T23:51:44.942Z,13.40
2018-08-30T23:54:13.423Z,13.40
2018-08-30T23:56:41.898Z,13.30
2018-08-30T23:59:21.590Z,13.30
